createdAt,value
2023-04-03T00:00:06.453Z,0.000000
2023-04-03T00:01:00.479Z,0.000000
2023-04-03T00:02:00.635Z,0.000000
2023-04-03T00:03:00.576Z,0.000000
2023-04-03T00:04:00.575Z,0.000000
2023-04-03T00:05:03.118Z,0.000000
2023-04-03T00:06:00.577Z,0.000000
2023-04-03T00:07:00.495Z,0.000000
2023-04-03T00:08:00.612Z,0.000000
2023-04-03T00:09:00.535Z,0.000000
2023-04-03T00:10:03.673Z,0.000000
2023-04-03T00:11:00.532Z,0.000000
2023-04-03T00:12:00.592Z,0.000000
2023-04-03T00:13:00.555Z,0.000000
2023-04-03T00:14:00.637Z,0.000000
2023-04-03T00:15:03.193Z,0.000000
2023-04-03T00:16:00.621Z,0.000000
2023-04-03T00:17:00.580Z,0.000000
2023-04-03T00:18:00.660Z,0.000000
2023-04-03T00:19:00.553Z,0.000000
2023-04-03T00:20:03.896Z,0.000000
2023-04-03T00:21:00.563Z,0.000000
2023-04-03T00:22:00.637Z,0.000000
2023-04-03T00:23:00.567Z,0.000000
2023-04-03T00:24:00.673Z,0.000000
2023-04-03T00:25:03.266Z,0.000000
2023-04-03T00:26:00.719Z,0.000000
2023-04-03T00:27:00.615Z,0.000000
2023-04-03T00:28:00.657Z,0.000000
2023-04-03T00:29:00.601Z,0.000000
2023-04-03T00:30:05.035Z,0.000000
2023-04-03T00:31:00.615Z,0.000000
2023-04-03T00:32:00.724Z,0.000000
2023-04-03T00:33:00.646Z,0.000000
2023-04-03T00:34:00.698Z,0.000000
2023-04-03T00:35:03.375Z,0.000000
2023-04-03T00:36:00.789Z,0.000000
2023-04-03T00:37:00.760Z,0.000000
2023-04-03T00:39:05.977Z,0.000000
2023-04-03T00:40:04.893Z,0.000000
2023-04-03T00:41:00.664Z,0.000000
2023-04-03T00:42:00.760Z,0.000000
2023-04-03T00:43:00.671Z,0.000000
2023-04-03T00:44:00.739Z,0.000000
2023-04-03T00:45:04.292Z,0.000000
2023-04-03T00:46:00.853Z,0.000000
2023-04-03T00:47:00.688Z,0.000000
2023-04-03T00:48:00.843Z,0.000000
2023-04-03T00:49:00.703Z,0.000000
2023-04-03T00:50:04.247Z,0.000000
2023-04-03T00:51:00.772Z,0.000000
2023-04-03T00:52:00.830Z,0.000000
2023-04-03T00:53:00.733Z,0.000000
2023-04-03T00:54:00.813Z,0.000000
2023-04-03T00:55:04.915Z,0.000000
2023-04-03T00:56:00.835Z,0.000000
2023-04-03T00:57:00.816Z,0.000000
2023-04-03T00:58:00.862Z,0.000000
2023-04-03T00:59:00.779Z,0.000000
2023-04-03T01:00:03.824Z,0.000000
2023-04-03T01:01:00.783Z,0.000000
2023-04-03T01:02:00.970Z,0.000000
2023-04-03T01:03:00.885Z,0.000000
2023-04-03T01:04:00.932Z,0.000000
2023-04-03T01:05:03.721Z,0.000000
2023-04-03T01:06:00.893Z,0.000000
2023-04-03T01:07:00.820Z,0.000000
2023-04-03T01:08:00.906Z,0.000000
2023-04-03T01:09:00.874Z,0.000000
2023-04-03T01:10:04.028Z,0.000000
2023-04-03T01:11:00.844Z,0.000000
2023-04-03T01:12:00.928Z,0.000000
2023-04-03T01:13:00.872Z,0.000000
2023-04-03T01:14:00.952Z,0.000000
2023-04-03T01:15:03.676Z,0.000000
2023-04-03T01:16:00.976Z,0.000000
2023-04-03T01:17:00.862Z,0.000000
2023-04-03T01:18:00.981Z,0.000000
2023-04-03T01:19:00.874Z,0.000000
2023-04-03T01:20:04.063Z,0.000000
2023-04-03T01:21:00.922Z,0.000000
2023-04-03T01:22:00.944Z,0.000000
2023-04-03T01:23:00.884Z,0.000000
2023-04-03T01:24:00.975Z,0.000000
2023-04-03T01:25:03.518Z,0.000000
2023-04-03T01:26:00.968Z,0.000000
2023-04-03T01:27:00.950Z,0.000000
2023-04-03T01:33:28.037Z,0.000000
2023-04-03T01:34:02.193Z,0.000000
2023-04-03T01:35:03.606Z,0.000000
2023-04-03T01:36:01.079Z,0.000000
2023-04-03T01:37:00.961Z,0.000000
2023-04-03T01:38:01.058Z,0.000000
2023-04-03T01:39:01.005Z,0.000000
2023-04-03T01:40:05.217Z,0.000000
2023-04-03T01:41:01.017Z,0.000000
2023-04-03T01:42:01.107Z,0.000000
2023-04-03T01:43:01.006Z,0.000000
2023-04-03T01:44:01.080Z,0.000000
2023-04-03T01:45:03.730Z,0.000000
2023-04-03T01:46:01.146Z,0.000000
2023-04-03T01:47:01.034Z,0.000000
2023-04-03T01:48:02.229Z,0.000000
2023-04-03T01:49:01.058Z,0.000000
2023-04-03T01:50:04.360Z,0.000000
2023-04-03T01:51:01.138Z,0.000000
2023-04-03T01:52:01.181Z,0.000000
2023-04-03T01:53:01.072Z,0.000000
2023-04-03T01:54:01.181Z,0.000000
2023-04-03T01:55:03.851Z,0.000000
2023-04-03T01:56:01.168Z,0.000000
2023-04-03T01:57:01.133Z,0.000000
2023-04-03T01:58:01.160Z,0.000000
2023-04-03T01:59:01.087Z,0.000000
2023-04-03T02:00:04.739Z,0.000000
2023-04-03T02:01:01.158Z,0.000000
2023-04-03T02:02:02.195Z,0.000000
2023-04-03T02:03:01.187Z,0.000000
2023-04-03T02:04:01.269Z,0.000000
2023-04-03T02:05:03.943Z,0.000000
2023-04-03T02:06:01.234Z,0.000000
2023-04-03T02:07:01.159Z,0.000000
2023-04-03T02:08:01.268Z,0.000000
2023-04-03T02:09:01.178Z,0.000000
2023-04-03T02:10:05.569Z,0.000000
2023-04-03T02:11:01.167Z,0.000000
2023-04-03T02:12:01.269Z,0.000000
2023-04-03T02:13:01.178Z,0.000000
2023-04-03T02:14:00.276Z,0.000000
2023-04-03T02:15:02.970Z,0.000000
2023-04-03T02:16:00.273Z,0.000000
2023-04-03T02:17:00.357Z,0.000000
2023-04-03T02:18:00.336Z,0.000000
2023-04-03T02:19:00.196Z,0.000000
2023-04-03T02:20:03.456Z,0.000000
2023-04-03T02:21:00.214Z,0.000000
2023-04-03T02:22:00.279Z,0.000000
2023-04-03T02:23:00.235Z,0.000000
2023-04-03T02:24:00.313Z,0.000000
2023-04-03T02:25:02.869Z,0.000000
2023-04-03T02:26:00.326Z,0.000000
2023-04-03T02:27:00.269Z,0.000000
2023-04-03T02:28:00.307Z,0.000000
2023-04-03T02:29:00.256Z,0.000000
2023-04-03T02:30:03.644Z,0.000000
2023-04-03T02:31:00.317Z,0.000000
2023-04-03T02:32:00.361Z,0.000000
2023-04-03T02:33:00.324Z,0.000000
2023-04-03T02:34:00.324Z,0.000000
2023-04-03T02:35:03.835Z,0.000000
2023-04-03T02:36:00.426Z,0.000000
2023-04-03T02:37:00.312Z,0.000000
2023-04-03T02:38:00.438Z,0.000000
2023-04-03T02:39:00.324Z,0.000000
2023-04-03T02:40:03.357Z,0.000000
2023-04-03T02:41:00.341Z,0.000000
2023-04-03T02:42:00.419Z,0.000000
2023-04-03T02:43:00.325Z,0.000000
2023-04-03T02:44:00.443Z,0.000000
2023-04-03T02:45:04.477Z,0.000000
2023-04-03T02:46:00.478Z,0.000000
2023-04-03T02:47:00.424Z,0.000000
2023-04-03T02:48:00.486Z,0.000000
2023-04-03T02:49:00.357Z,0.000000
2023-04-03T02:50:03.374Z,0.000000
2023-04-03T02:51:00.393Z,0.000000
2023-04-03T02:52:00.473Z,0.000000
2023-04-03T02:53:00.385Z,0.000000
2023-04-03T02:54:00.510Z,0.000000
2023-04-03T02:55:03.124Z,0.000000
2023-04-03T02:56:00.498Z,0.000000
2023-04-03T02:57:00.481Z,0.000000
2023-04-03T02:58:00.496Z,0.000000
2023-04-03T02:59:00.424Z,0.000000
2023-04-03T03:00:03.880Z,0.000000
2023-04-03T03:01:00.457Z,0.000000
2023-04-03T03:02:00.616Z,0.000000
2023-04-03T03:03:00.513Z,0.000000
2023-04-03T03:04:00.553Z,0.000000
2023-04-03T03:05:03.304Z,0.000000
2023-04-03T03:06:00.561Z,0.000000
2023-04-03T03:07:00.479Z,0.000000
2023-04-03T03:08:00.615Z,0.000000
2023-04-03T03:09:00.501Z,0.000000
2023-04-03T03:10:03.872Z,0.000000
2023-04-03T03:11:00.511Z,0.000000
2023-04-03T03:12:02.185Z,0.000000
2023-04-03T03:13:00.517Z,0.000000
2023-04-03T03:14:00.609Z,0.000000
2023-04-03T03:15:03.230Z,0.000000
2023-04-03T03:16:00.648Z,0.000000
2023-04-03T03:17:00.550Z,0.000000
2023-04-03T03:18:00.658Z,0.000000
2023-04-03T03:19:00.540Z,0.000000
2023-04-03T03:20:05.061Z,0.000000
2023-04-03T03:21:00.556Z,0.000000
2023-04-03T03:22:00.635Z,0.000000
2023-04-03T03:23:00.551Z,0.000000
2023-04-03T03:24:00.698Z,0.000000
2023-04-03T03:25:03.339Z,0.000000
2023-04-03T03:26:02.214Z,0.000000
2023-04-03T03:27:00.595Z,0.000000
2023-04-03T03:28:00.655Z,0.000000
2023-04-03T03:29:00.607Z,0.000000
2023-04-03T03:30:04.848Z,0.000000
2023-04-03T03:31:00.728Z,0.000000
2023-04-03T03:32:01.093Z,0.000000
2023-04-03T03:33:00.657Z,0.000000
2023-04-03T03:34:00.701Z,0.000000
2023-04-03T03:35:09.571Z,0.000000
2023-04-03T03:36:02.250Z,0.000000
2023-04-03T03:37:00.653Z,0.000000
2023-04-03T03:38:00.738Z,0.000000
2023-04-03T03:39:00.667Z,0.000000
2023-04-03T03:40:04.306Z,0.000000
2023-04-03T03:41:00.680Z,0.000000
2023-04-03T03:42:00.752Z,0.000000
2023-04-03T03:43:00.664Z,0.000000
2023-04-03T03:44:00.796Z,0.000000
2023-04-03T03:45:03.744Z,0.000000
2023-04-03T03:46:00.754Z,0.000000
2023-04-03T03:47:00.752Z,0.000000
2023-04-03T03:48:00.847Z,0.000000
2023-04-03T03:49:00.694Z,0.000000
2023-04-03T03:50:05.325Z,0.000000
2023-04-03T03:51:00.725Z,0.000000
2023-04-03T03:52:00.790Z,0.000000
2023-04-03T03:53:00.728Z,0.000000
2023-04-03T03:54:00.821Z,0.000000
2023-04-03T03:55:03.428Z,0.000000
2023-04-03T03:56:00.837Z,0.000000
2023-04-03T03:57:00.766Z,0.000000
2023-04-03T03:58:00.817Z,0.000000
2023-04-03T03:59:00.749Z,0.000000
2023-04-03T04:00:05.273Z,0.000000
2023-04-03T04:01:00.762Z,0.000000
2023-04-03T04:02:00.936Z,0.000000
2023-04-03T04:03:00.905Z,0.000000
2023-04-03T04:04:02.306Z,0.000000
2023-04-03T04:05:03.600Z,0.000000
2023-04-03T04:06:00.872Z,0.000000
2023-04-03T04:07:00.789Z,0.000000
2023-04-03T04:08:00.913Z,0.000000
2023-04-03T04:09:00.821Z,0.000000
2023-04-03T04:10:04.257Z,0.000000
2023-04-03T04:11:00.835Z,0.000000
2023-04-03T04:12:00.941Z,0.000000
2023-04-03T04:13:00.829Z,0.000000
2023-04-03T04:14:00.954Z,0.000000
2023-04-03T04:15:03.588Z,0.000000
2023-04-03T04:16:00.921Z,0.000000
2023-04-03T04:17:01.019Z,0.000000
2023-04-03T04:18:02.251Z,0.000000
2023-04-03T04:19:00.868Z,0.000000
2023-04-03T04:20:05.267Z,0.000000
2023-04-03T04:21:00.895Z,0.000000
2023-04-03T04:22:00.949Z,0.000000
2023-04-03T04:23:00.895Z,0.000000
2023-04-03T04:24:00.976Z,0.000000
2023-04-03T04:25:04.837Z,0.000000
2023-04-03T04:26:01.001Z,0.000000
2023-04-03T04:27:00.940Z,0.000000
2023-04-03T04:28:01.018Z,0.000000
2023-04-03T04:29:01.028Z,0.000000
2023-04-03T04:30:04.370Z,0.000000
2023-04-03T04:31:00.963Z,0.000000
2023-04-03T04:32:02.350Z,0.000000
2023-04-03T04:33:01.053Z,0.000000
2023-04-03T04:34:01.034Z,0.000000
2023-04-03T04:35:31.382Z,0.000000
2023-04-03T04:36:01.089Z,0.000000
2023-04-03T04:37:01.080Z,0.000000
2023-04-03T04:38:01.109Z,2.000000
2023-04-03T04:39:01.001Z,2.000000
2023-04-03T04:40:31.988Z,4.100000
2023-04-03T04:41:00.993Z,4.100000
2023-04-03T04:42:01.081Z,4.100000
2023-04-03T04:43:01.025Z,10.200000
2023-04-03T04:44:01.148Z,10.200000
2023-04-03T04:45:04.785Z,14.200000
2023-04-03T04:46:02.254Z,14.200000
2023-04-03T04:47:01.035Z,16.300000
2023-04-03T04:48:08.892Z,16.300000
2023-04-03T04:49:01.043Z,16.300000
2023-04-03T04:50:04.643Z,30.500000
2023-04-03T04:51:01.058Z,30.500000
2023-04-03T04:52:01.159Z,30.500000
2023-04-03T04:53:01.068Z,42.700000
2023-04-03T04:54:01.824Z,42.700000
2023-04-03T04:55:04.014Z,61.000000
2023-04-03T04:56:01.220Z,61.000000
2023-04-03T04:57:01.142Z,61.000000
2023-04-03T04:58:01.174Z,79.300000
2023-04-03T04:59:01.088Z,79.300000
2023-04-03T05:00:06.051Z,79.300000
2023-04-03T05:01:01.145Z,111.900000
2023-04-03T05:02:01.330Z,111.900000
2023-04-03T05:03:01.186Z,146.400000
2023-04-03T05:04:01.222Z,146.400000
2023-04-03T05:05:05.170Z,146.400000
2023-04-03T05:06:01.243Z,189.200000
2023-04-03T05:07:01.158Z,189.200000
2023-04-03T05:08:01.851Z,231.900000
2023-04-03T05:09:01.199Z,231.900000
2023-04-03T05:10:04.472Z,260.400000
2023-04-03T05:11:01.192Z,260.400000
2023-04-03T05:12:01.302Z,260.400000
2023-04-03T05:13:00.201Z,323.400000
2023-04-03T05:14:00.315Z,323.400000
2023-04-03T05:15:02.945Z,323.400000
2023-04-03T05:16:00.371Z,376.300000
2023-04-03T05:17:00.221Z,376.300000
2023-04-03T05:18:00.390Z,439.300000
2023-04-03T05:19:00.233Z,439.300000
2023-04-03T05:20:04.217Z,488.200000
2023-04-03T05:21:00.277Z,488.200000
2023-04-03T05:22:01.837Z,488.200000
2023-04-03T05:23:00.255Z,563.400000
2023-04-03T05:24:00.315Z,563.400000
2023-04-03T05:25:03.394Z,563.400000
2023-04-03T05:26:00.377Z,628.500000
2023-04-03T05:27:00.288Z,628.500000
2023-04-03T05:28:00.343Z,628.500000
2023-04-03T05:29:00.338Z,705.800000
2023-04-03T05:30:06.784Z,705.800000
2023-04-03T05:31:00.313Z,787.200000
2023-04-03T05:32:01.857Z,787.200000
2023-04-03T05:33:00.346Z,878.700000
2023-04-03T05:34:00.350Z,878.700000
2023-04-03T05:35:03.008Z,878.700000
2023-04-03T05:36:00.418Z,1063.800000
2023-04-03T05:37:00.302Z,1063.800000
2023-04-03T05:38:00.407Z,2575.000000
2023-04-03T05:39:00.354Z,2575.000000
2023-04-03T05:40:03.924Z,2575.000000
2023-04-03T05:41:00.324Z,3934.000000
2023-04-03T05:42:00.430Z,3934.000000
2023-04-03T05:43:00.344Z,4225.000000
2023-04-03T05:44:00.450Z,4225.000000
2023-04-03T05:45:03.153Z,4225.000000
2023-04-03T05:46:01.904Z,4376.000000
2023-04-03T05:47:00.369Z,4376.000000
2023-04-03T05:48:00.576Z,4518.000000
2023-04-03T05:49:00.426Z,4518.000000
2023-04-03T05:50:03.672Z,4518.000000
2023-04-03T05:51:00.406Z,4647.000000
2023-04-03T05:52:00.461Z,4647.000000
2023-04-03T05:53:00.430Z,4755.000000
2023-04-03T05:54:00.487Z,4755.000000
2023-04-03T05:55:03.393Z,4755.000000
2023-04-03T05:56:00.501Z,4881.000000
2023-04-03T05:57:00.491Z,4881.000000
2023-04-03T05:58:00.510Z,4881.000000
2023-04-03T05:59:00.435Z,5003.000000
2023-04-03T06:00:04.079Z,5003.000000
2023-04-03T06:01:00.467Z,5003.000000
2023-04-03T06:02:00.616Z,5112.000000
2023-04-03T06:03:00.625Z,5112.000000
2023-04-03T06:04:00.677Z,5192.000000
2023-04-03T06:05:03.436Z,5192.000000
2023-04-03T06:06:00.713Z,5192.000000
2023-04-03T06:07:00.500Z,5192.000000
2023-04-03T06:08:00.754Z,5192.000000
2023-04-03T06:09:02.056Z,5374.000000
2023-04-03T06:10:03.922Z,5374.000000
2023-04-03T06:11:00.520Z,5374.000000
2023-04-03T06:12:00.650Z,5454.000000
2023-04-03T06:13:00.553Z,5454.000000
2023-04-03T06:14:01.929Z,5524.000000
2023-04-03T06:15:04.142Z,5524.000000
2023-04-03T06:16:00.631Z,5577.000000
2023-04-03T06:17:00.646Z,5577.000000
2023-04-03T06:18:00.757Z,5577.000000
2023-04-03T06:19:00.551Z,5650.000000
2023-04-03T06:20:03.815Z,5650.000000
2023-04-03T06:21:00.572Z,5650.000000
2023-04-03T06:22:00.644Z,5712.000000
2023-04-03T06:23:00.588Z,5712.000000
2023-04-03T06:24:00.698Z,5712.000000
2023-04-03T06:25:04.915Z,5762.000000
2023-04-03T06:26:00.680Z,5762.000000
2023-04-03T06:27:00.638Z,5812.000000
2023-04-03T06:28:01.868Z,5812.000000
2023-04-03T06:29:00.638Z,5840.000000
2023-04-03T06:30:04.008Z,5840.000000
2023-04-03T06:31:00.730Z,5840.000000
2023-04-03T06:32:01.814Z,5887.000000
2023-04-03T06:33:00.723Z,5887.000000
2023-04-03T06:34:00.743Z,5887.000000
2023-04-03T06:35:03.727Z,5919.000000
2023-04-03T06:36:00.850Z,5919.000000
2023-04-03T06:37:00.714Z,5952.000000
2023-04-03T06:38:00.799Z,5952.000000
2023-04-03T06:39:00.725Z,5987.000000
2023-04-03T06:40:04.094Z,5987.000000
2023-04-03T06:41:00.721Z,5987.000000
2023-04-03T06:42:00.816Z,6034.000000
2023-04-03T06:43:00.746Z,6034.000000
2023-04-03T06:44:00.972Z,6034.000000
2023-04-03T06:45:03.622Z,6065.000000
2023-04-03T06:46:01.843Z,6065.000000
2023-04-03T06:47:00.973Z,6096.000000
2023-04-03T06:48:01.132Z,6096.000000
2023-04-03T06:49:00.989Z,6096.000000
2023-04-03T06:50:04.450Z,6120.000000
2023-04-03T06:51:01.002Z,6120.000000
2023-04-03T06:52:02.374Z,6137.000000
2023-04-03T06:53:00.743Z,6137.000000
2023-04-03T06:54:00.806Z,6137.000000
2023-04-03T06:55:04.847Z,6161.000000
2023-04-03T06:56:00.817Z,6161.000000
2023-04-03T06:57:01.289Z,6161.000000
2023-04-03T06:58:00.313Z,6161.000000
2023-04-03T06:59:00.246Z,6161.000000
2023-04-03T07:00:03.637Z,6187.000000
2023-04-03T07:01:00.302Z,6187.000000
2023-04-03T07:02:00.399Z,6204.000000
2023-04-03T07:03:00.340Z,6204.000000
2023-04-03T07:04:00.376Z,6204.000000
2023-04-03T07:05:03.122Z,6232.000000
2023-04-03T07:06:00.397Z,6232.000000
2023-04-03T07:07:00.403Z,6244.000000
2023-04-03T07:08:00.376Z,6244.000000
2023-04-03T07:09:00.341Z,6244.000000
2023-04-03T07:10:01.064Z,6252.000000
2023-04-03T07:11:01.061Z,6252.000000
2023-04-03T07:12:00.870Z,6279.000000
2023-04-03T07:13:00.889Z,6279.000000
2023-04-03T07:14:00.533Z,6291.000000
2023-04-03T07:15:03.215Z,6291.000000
2023-04-03T07:16:00.606Z,6291.000000
2023-04-03T07:17:00.994Z,6309.000000
2023-04-03T07:18:01.145Z,6309.000000
2023-04-03T07:19:01.024Z,6309.000000
2023-04-03T07:20:04.575Z,6306.000000
2023-04-03T07:21:01.323Z,6306.000000
2023-04-03T07:22:01.103Z,6318.000000
2023-04-03T07:23:02.751Z,6318.000000
2023-04-03T07:24:01.064Z,6317.000000
2023-04-03T07:25:03.644Z,6317.000000
2023-04-03T07:26:01.047Z,6317.000000
2023-04-03T07:27:00.954Z,6329.000000
2023-04-03T07:28:01.824Z,6329.000000
2023-04-03T07:29:00.962Z,6329.000000
2023-04-03T07:30:06.057Z,6332.000000
2023-04-03T07:31:00.985Z,6332.000000
2023-04-03T07:32:02.008Z,6339.000000
2023-04-03T07:33:01.067Z,6339.000000
2023-04-03T07:34:01.078Z,6335.000000
2023-04-03T07:35:04.235Z,6335.000000
2023-04-03T07:36:01.207Z,6335.000000
2023-04-03T07:37:01.043Z,6341.000000
2023-04-03T07:38:01.133Z,6341.000000
2023-04-03T07:39:01.063Z,6341.000000
2023-04-03T07:40:04.443Z,6356.000000
2023-04-03T07:41:01.067Z,6356.000000
2023-04-03T07:42:01.184Z,6356.000000
2023-04-03T07:43:01.089Z,6352.000000
2023-04-03T07:44:01.170Z,6352.000000
2023-04-03T07:45:03.732Z,6369.000000
2023-04-03T07:46:01.851Z,6369.000000
2023-04-03T07:47:01.117Z,6369.000000
2023-04-03T07:48:01.338Z,6369.000000
2023-04-03T07:49:01.125Z,6369.000000
2023-04-03T07:50:04.508Z,6425.000000
2023-04-03T07:51:01.150Z,6425.000000
2023-04-03T07:52:01.218Z,6425.000000
2023-04-03T07:53:01.168Z,6472.000000
2023-04-03T07:54:01.340Z,6472.000000
2023-04-03T07:55:03.919Z,6472.000000
2023-04-03T07:56:01.299Z,6472.000000
2023-04-03T07:57:01.287Z,6457.000000
2023-04-03T07:58:01.267Z,6457.000000
2023-04-03T07:59:01.197Z,6457.000000
2023-04-03T08:00:04.989Z,6508.000000
2023-04-03T08:01:00.271Z,6508.000000
2023-04-03T08:02:00.290Z,6508.000000
2023-04-03T08:03:00.370Z,6471.000000
2023-04-03T08:04:00.472Z,6471.000000
2023-04-03T08:05:03.779Z,6471.000000
2023-04-03T08:06:00.373Z,6471.000000
2023-04-03T08:07:00.284Z,6471.000000
2023-04-03T08:08:00.346Z,6538.000000
2023-04-03T08:09:00.362Z,6538.000000
2023-04-03T08:10:04.751Z,6604.000000
2023-04-03T08:11:00.383Z,6604.000000
2023-04-03T08:12:00.496Z,6604.000000
2023-04-03T08:13:00.391Z,6528.000000
2023-04-03T08:14:01.878Z,6528.000000
2023-04-03T08:15:04.515Z,6566.000000
2023-04-03T08:16:00.482Z,6566.000000
2023-04-03T08:17:00.538Z,6566.000000
2023-04-03T08:18:00.552Z,6566.000000
2023-04-03T08:19:00.416Z,6566.000000
2023-04-03T08:20:03.689Z,6611.000000
2023-04-03T08:21:00.463Z,6611.000000
2023-04-03T08:22:00.522Z,6611.000000
2023-04-03T08:23:00.456Z,6535.000000
2023-04-03T08:24:00.564Z,6535.000000
2023-04-03T08:25:03.215Z,6535.000000
2023-04-03T08:26:00.547Z,6510.000000
2023-04-03T08:27:01.107Z,6510.000000
2023-04-03T08:28:01.867Z,6505.000000
2023-04-03T08:29:01.096Z,6505.000000
2023-04-03T08:30:04.930Z,6553.000000
2023-04-03T08:31:01.137Z,6553.000000
2023-04-03T08:32:01.825Z,6570.000000
2023-04-03T08:33:01.153Z,6570.000000
2023-04-03T08:34:01.192Z,6570.000000
2023-04-03T08:35:03.925Z,6584.000000
2023-04-03T08:36:01.295Z,6584.000000
2023-04-03T08:37:01.130Z,6584.000000
2023-04-03T08:38:01.222Z,6688.000000
2023-04-03T08:39:01.214Z,6688.000000
2023-04-03T08:40:04.456Z,6601.000000
2023-04-03T08:41:01.179Z,6601.000000
2023-04-03T08:42:01.293Z,6545.000000
2023-04-03T08:43:01.205Z,6545.000000
2023-04-03T08:44:01.292Z,6545.000000
2023-04-03T08:45:04.100Z,6534.000000
2023-04-03T08:46:01.896Z,6534.000000
2023-04-03T08:47:00.231Z,6539.000000
2023-04-03T08:48:00.423Z,6539.000000
2023-04-03T08:49:00.286Z,6539.000000
2023-04-03T08:50:03.382Z,6539.000000
2023-04-03T08:51:03.351Z,6547.000000
2023-04-03T08:52:00.331Z,6547.000000
2023-04-03T08:53:00.282Z,6548.000000
2023-04-03T08:54:00.382Z,6548.000000
2023-04-03T08:55:03.075Z,6548.000000
2023-04-03T08:56:00.373Z,6566.000000
2023-04-03T08:57:00.356Z,6566.000000
2023-04-03T08:58:00.366Z,6566.000000
2023-04-03T08:59:00.309Z,6589.000000
2023-04-03T09:00:04.921Z,6589.000000
2023-04-03T09:01:00.364Z,6588.000000
2023-04-03T09:02:01.951Z,6588.000000
2023-04-03T09:03:00.510Z,6588.000000
2023-04-03T09:04:04.165Z,6562.000000
2023-04-03T09:05:03.168Z,6562.000000
2023-04-03T09:06:04.562Z,6584.000000
2023-04-03T09:07:00.398Z,6584.000000
2023-04-03T09:08:00.809Z,6584.000000
2023-04-03T09:09:00.415Z,6552.000000
2023-04-03T09:10:03.815Z,6552.000000
2023-04-03T09:11:00.411Z,6539.000000
2023-04-03T09:12:02.172Z,6539.000000
2023-04-03T09:13:00.439Z,6539.000000
2023-04-03T09:14:02.839Z,6490.000000
2023-04-03T09:15:03.550Z,6490.000000
2023-04-03T09:16:01.094Z,6486.000000
2023-04-03T09:17:00.448Z,6486.000000
2023-04-03T09:18:00.566Z,6486.000000
2023-04-03T09:19:00.469Z,6500.000000
2023-04-03T09:20:03.638Z,6500.000000
2023-04-03T09:21:00.501Z,6500.000000
2023-04-03T09:22:00.566Z,6497.000000
2023-04-03T09:23:00.514Z,6497.000000
2023-04-03T09:24:00.608Z,6505.000000
2023-04-03T09:25:03.331Z,6505.000000
2023-04-03T09:26:00.574Z,6505.000000
2023-04-03T09:27:00.579Z,6498.000000
2023-04-03T09:28:01.881Z,6498.000000
2023-04-03T09:29:00.554Z,6487.000000
2023-04-03T09:30:03.808Z,6487.000000
2023-04-03T09:31:00.598Z,6487.000000
2023-04-03T09:32:00.632Z,6488.000000
2023-04-03T09:33:00.623Z,6488.000000
2023-04-03T09:34:00.662Z,6492.000000
2023-04-03T09:35:09.681Z,6492.000000
2023-04-03T09:36:00.700Z,6492.000000
2023-04-03T09:37:00.603Z,6494.000000
2023-04-03T09:38:00.672Z,6494.000000
2023-04-03T09:39:00.609Z,6487.000000
2023-04-03T09:40:05.008Z,6487.000000
2023-04-03T09:41:00.632Z,6487.000000
2023-04-03T09:42:01.834Z,6484.000000
2023-04-03T09:43:01.793Z,6484.000000
2023-04-03T09:44:00.739Z,6484.000000
2023-04-03T09:45:03.420Z,6493.000000
2023-04-03T09:46:00.998Z,6493.000000
2023-04-03T09:47:00.761Z,6488.000000
2023-04-03T09:48:00.828Z,6488.000000
2023-04-03T09:49:08.102Z,6491.000000
2023-04-03T09:50:04.122Z,6491.000000
2023-04-03T09:51:00.721Z,6492.000000
2023-04-03T09:52:00.796Z,6492.000000
2023-04-03T09:53:00.706Z,6492.000000
2023-04-03T09:54:00.791Z,6499.000000
2023-04-03T09:55:04.364Z,6499.000000
2023-04-03T09:56:01.849Z,6499.000000
2023-04-03T09:57:00.771Z,6503.000000
2023-04-03T09:58:00.795Z,6503.000000
2023-04-03T09:59:00.742Z,6496.000000
2023-04-03T10:00:04.091Z,6496.000000
2023-04-03T10:01:00.759Z,6497.000000
2023-04-03T10:02:00.830Z,6497.000000
2023-04-03T10:03:00.853Z,6497.000000
2023-04-03T10:04:00.855Z,6500.000000
2023-04-03T10:05:09.438Z,6500.000000
2023-04-03T10:06:00.856Z,6500.000000
2023-04-03T10:07:00.807Z,6501.000000
2023-04-03T10:08:04.055Z,6501.000000
2023-04-03T10:09:00.820Z,6501.000000
2023-04-03T10:10:04.170Z,6503.000000
2023-04-03T10:11:00.801Z,6503.000000
2023-04-03T10:12:00.876Z,6496.000000
2023-04-03T10:13:00.817Z,6496.000000
2023-04-03T10:14:00.972Z,6491.000000
2023-04-03T10:15:03.670Z,6491.000000
2023-04-03T10:16:00.986Z,6491.000000
2023-04-03T10:17:00.950Z,6474.000000
2023-04-03T10:18:06.381Z,6474.000000
2023-04-03T10:19:00.856Z,6477.000000
2023-04-03T10:20:04.011Z,6477.000000
2023-04-03T10:21:00.841Z,6477.000000
2023-04-03T10:22:00.931Z,6497.000000
2023-04-03T10:23:00.853Z,6497.000000
2023-04-03T10:24:01.844Z,6465.000000
2023-04-03T10:25:03.667Z,6465.000000
2023-04-03T10:26:00.936Z,6465.000000
2023-04-03T10:27:00.865Z,6459.000000
2023-04-03T10:28:00.993Z,6459.000000
2023-04-03T10:29:00.896Z,6457.000000
2023-04-03T10:30:04.256Z,6457.000000
2023-04-03T10:31:00.969Z,6457.000000
2023-04-03T10:32:01.897Z,6442.000000
2023-04-03T10:33:00.916Z,6442.000000
2023-04-03T10:34:00.984Z,6440.000000
2023-04-03T10:35:05.391Z,6440.000000
2023-04-03T10:36:01.020Z,6440.000000
2023-04-03T10:37:00.900Z,6424.000000
2023-04-03T10:38:00.987Z,6424.000000
2023-04-03T10:39:00.931Z,6424.000000
2023-04-03T10:40:04.087Z,6422.000000
2023-04-03T10:41:00.923Z,6422.000000
2023-04-03T10:42:15.854Z,6416.000000
2023-04-03T10:43:00.937Z,6416.000000
2023-04-03T10:44:01.012Z,6416.000000
2023-04-03T10:45:03.836Z,6411.000000
2023-04-03T10:46:02.067Z,6411.000000
2023-04-03T10:47:00.951Z,6411.000000
2023-04-03T10:48:01.083Z,6411.000000
2023-04-03T10:49:00.946Z,6411.000000
2023-04-03T10:50:06.847Z,6402.000000
2023-04-03T10:51:00.987Z,6402.000000
2023-04-03T10:52:01.085Z,6393.000000
2023-04-03T10:53:00.998Z,6393.000000
2023-04-03T10:54:01.100Z,6393.000000
2023-04-03T10:55:03.729Z,6385.000000
2023-04-03T10:56:01.101Z,6385.000000
2023-04-03T10:57:10.873Z,6386.000000
2023-04-03T10:58:01.158Z,6386.000000
2023-04-03T10:59:01.035Z,6386.000000
2023-04-03T11:00:04.757Z,6364.000000
2023-04-03T11:01:01.060Z,6364.000000
2023-04-03T11:02:01.173Z,6364.000000
2023-04-03T11:03:01.174Z,6369.000000
2023-04-03T11:04:01.327Z,6369.000000
2023-04-03T11:05:03.851Z,6364.000000
2023-04-03T11:06:01.200Z,6364.000000
2023-04-03T11:07:01.147Z,6364.000000
2023-04-03T11:08:01.206Z,6364.000000
2023-04-03T11:09:01.124Z,6364.000000
2023-04-03T11:10:04.654Z,6343.000000
2023-04-03T11:11:01.118Z,6343.000000
2023-04-03T11:12:01.222Z,6332.000000
2023-04-03T11:13:01.132Z,6332.000000
2023-04-03T11:14:01.869Z,6332.000000
2023-04-03T11:15:03.853Z,6338.000000
2023-04-03T11:16:01.470Z,6338.000000
2023-04-03T11:17:01.178Z,6333.000000